Terminal Aerodrome Forecast
Issued by NWS

Home | Current Version | Previous Version | Text Only | Print | Product List | Glossary On
Versions: 1 2 3 4 5 6 7 8 9 10 11 12 13 14 15 16 17 18 19 20 21 22
458
FTUS44 KMAF 181724
TAFINK
TAF
KINK 181724Z 1818/1918 20004KT P6SM FEW020 SCT250
     FM182000 23008KT P6SM FEW100 SCT250
     FM191500 25018G28KT P6SM SCT120=

USA.gov is the U.S. government's official web portal to all federal, state and local government web resources and services.